Terminal Aerodrome Forecast
Issued by NWS Blacksburg, VA

Current Version | Previous Version | Graphics & Text | Print | Product List | Glossary On
Versions: 1 2 3 4 5 6 7 8 9 10 11 12 13 14 15 16 17 18 19 20 21 22 23 24 25 26 27 28 29 30 31 32 33 34 35 36 37 38 39 40 41 42 43 44 45 46 47 48 49 50
148
FTUS41 KRNK 160520
TAFBLF
TAF
KBLF 160520Z 1606/1706 20006KT P6SM BKN080
     FM161300 22006KT 6SM -SN OVC050
     FM161500 26008KT 5SM -SN OVC035
     FM161700 26008KT 1SM -SN OVC020
     FM170200 32007KT 4SM -SHSN OVC015=

USA.gov is the U.S. government's official web portal to all federal, state and local government web resources and services.